Terminal Aerodrome Forecast
Issued by NWS

Home | Current Version | Previous Version | Text Only | Print | Product List | Glossary On
Versions: 1 2 3 4 5 6 7 8 9 10 11 12 13 14
000
FTUS45 KTFX 300500
TAFLWT
TAF
KLWT 300520Z 3006/3106 12008KT P6SM SKC
     FM301200 23008KT P6SM VCSH OVC090 PROB30 3015/3017 -SHRA OVC045
     FM301700 30007KT P6SM SCT060 BKN090
      TEMPO 3020/3024 -SHRA BKN060
     FM310000 30006KT P6SM SCT070
     FM310400 VRB05KT P6SM BKN250=

USA.gov is the U.S. government's official web portal to all federal, state and local government web resources and services.